sensor_id;sensor_type;location;lat;lon;timestamp;P1;durP1;ratioP1;P2;durP2;ratioP2
52112;SDS011;38109;49.488;31.988;2023-04-25T00:00:19;13.65;;;6.93;;
52112;SDS011;38109;49.488;31.988;2023-04-25T00:02:44;12.32;;;7.20;;
52112;SDS011;38109;49.488;31.988;2023-04-25T00:05:11;13.10;;;6.85;;
52112;SDS011;38109;49.488;31.988;2023-04-25T00:07:37;10.63;;;6.18;;
52112;SDS011;38109;49.488;31.988;2023-04-25T00:10:03;10.57;;;6.28;;
52112;SDS011;38109;49.488;31.988;2023-04-25T00:12:29;17.92;;;9.77;;
52112;SDS011;38109;49.488;31.988;2023-04-25T00:14:55;11.10;;;6.82;;
52112;SDS011;38109;49.488;31.988;2023-04-25T00:17:24;11.75;;;7.07;;
52112;SDS011;38109;49.488;31.988;2023-04-25T00:19:51;11.45;;;6.35;;
52112;SDS011;38109;49.488;31.988;2023-04-25T00:22:17;11.35;;;5.93;;
52112;SDS011;38109;49.488;31.988;2023-04-25T00:24:43;9.63;;;5.82;;
52112;SDS011;38109;49.488;31.988;2023-04-25T00:27:09;24.67;;;10.05;;
52112;SDS011;38109;49.488;31.988;2023-04-25T00:29:35;132.75;;;36.92;;
52112;SDS011;38109;49.488;31.988;2023-04-25T00:32:01;125.72;;;38.10;;
52112;SDS011;38109;49.488;31.988;2023-04-25T00:34:27;221.93;;;56.53;;
52112;SDS011;38109;49.488;31.988;2023-04-25T00:36:53;354.48;;;93.30;;
52112;SDS011;38109;49.488;31.988;2023-04-25T00:39:18;235.30;;;65.93;;
52112;SDS011;38109;49.488;31.988;2023-04-25T00:41:44;74.60;;;25.75;;
52112;SDS011;38109;49.488;31.988;2023-04-25T00:44:10;37.58;;;13.70;;
52112;SDS011;38109;49.488;31.988;2023-04-25T00:46:38;19.58;;;9.10;;
52112;SDS011;38109;49.488;31.988;2023-04-25T00:49:04;15.50;;;7.70;;
52112;SDS011;38109;49.488;31.988;2023-04-25T00:51:30;12.07;;;6.50;;
52112;SDS011;38109;49.488;31.988;2023-04-25T00:53:57;9.38;;;5.85;;
52112;SDS011;38109;49.488;31.988;2023-04-25T00:56:23;8.98;;;5.28;;
52112;SDS011;38109;49.488;31.988;2023-04-25T00:58:49;8.45;;;4.90;;
52112;SDS011;38109;49.488;31.988;2023-04-25T01:01:17;10.07;;;5.60;;
52112;SDS011;38109;49.488;31.988;2023-04-25T01:03:43;42.42;;;17.65;;
52112;SDS011;38109;49.488;31.988;2023-04-25T01:06:11;30.27;;;13.65;;
52112;SDS011;38109;49.488;31.988;2023-04-25T01:08:38;20.38;;;9.77;;
52112;SDS011;38109;49.488;31.988;2023-04-25T01:11:04;13.82;;;7.45;;
52112;SDS011;38109;49.488;31.988;2023-04-25T01:13:30;42.38;;;18.20;;
52112;SDS011;38109;49.488;31.988;2023-04-25T01:15:58;44.55;;;18.67;;
52112;SDS011;38109;49.488;31.988;2023-04-25T01:18:24;34.85;;;15.55;;
52112;SDS011;38109;49.488;31.988;2023-04-25T01:20:50;28.15;;;12.52;;
52112;SDS011;38109;49.488;31.988;2023-04-25T01:23:18;18.75;;;9.07;;
52112;SDS011;38109;49.488;31.988;2023-04-25T01:25:45;11.85;;;7.03;;
52112;SDS011;38109;49.488;31.988;2023-04-25T01:28:10;15.27;;;6.63;;
52112;SDS011;38109;49.488;31.988;2023-04-25T01:30:36;9.77;;;5.97;;
52112;SDS011;38109;49.488;31.988;2023-04-25T01:33:03;9.73;;;5.78;;
52112;SDS011;38109;49.488;31.988;2023-04-25T01:35:30;12.80;;;6.13;;
52112;SDS011;38109;49.488;31.988;2023-04-25T01:37:57;14.15;;;7.30;;
52112;SDS011;38109;49.488;31.988;2023-04-25T01:40:23;27.25;;;12.57;;
52112;SDS011;38109;49.488;31.988;2023-04-25T01:42:50;30.67;;;14.20;;
52112;SDS011;38109;49.488;31.988;2023-04-25T01:45:16;30.63;;;12.77;;
52112;SDS011;38109;49.488;31.988;2023-04-25T01:47:42;18.38;;;9.40;;
52112;SDS011;38109;49.488;31.988;2023-04-25T01:50:09;15.60;;;7.68;;
52112;SDS011;38109;49.488;31.988;2023-04-25T01:52:36;17.45;;;9.30;;
52112;SDS011;38109;49.488;31.988;2023-04-25T01:55:02;18.05;;;10.02;;
52112;SDS011;38109;49.488;31.988;2023-04-25T01:57:27;17.58;;;8.75;;
52112;SDS011;38109;49.488;31.988;2023-04-25T02:00:00;14.05;;;8.48;;
52112;SDS011;38109;49.488;31.988;2023-04-25T02:02:28;16.52;;;9.07;;
52112;SDS011;38109;49.488;31.988;2023-04-25T02:04:54;15.32;;;9.35;;
52112;SDS011;38109;49.488;31.988;2023-04-25T02:07:21;13.80;;;8.25;;
52112;SDS011;38109;49.488;31.988;2023-04-25T02:09:47;14.30;;;8.50;;
52112;SDS011;38109;49.488;31.988;2023-04-25T02:12:12;13.98;;;8.07;;
52112;SDS011;38109;49.488;31.988;2023-04-25T02:14:38;18.10;;;8.32;;
52112;SDS011;38109;49.488;31.988;2023-04-25T02:17:04;14.15;;;7.80;;
52112;SDS011;38109;49.488;31.988;2023-04-25T02:19:30;11.85;;;7.38;;
52112;SDS011;38109;49.488;31.988;2023-04-25T02:21:56;10.90;;;6.90;;
52112;SDS011;38109;49.488;31.988;2023-04-25T02:24:22;11.20;;;7.15;;
52112;SDS011;38109;49.488;31.988;2023-04-25T02:26:47;9.68;;;6.32;;
52112;SDS011;38109;49.488;31.988;2023-04-25T02:29:14;11.25;;;6.18;;
52112;SDS011;38109;49.488;31.988;2023-04-25T02:31:40;9.70;;;6.15;;
52112;SDS011;38109;49.488;31.988;2023-04-25T02:34:06;10.60;;;6.50;;
52112;SDS011;38109;49.488;31.988;2023-04-25T02:36:32;9.57;;;6.00;;
52112;SDS011;38109;49.488;31.988;2023-04-25T02:39:00;10.43;;;5.90;;
52112;SDS011;38109;49.488;31.988;2023-04-25T02:41:26;8.60;;;5.43;;
52112;SDS011;38109;49.488;31.988;2023-04-25T02:43:52;11.88;;;6.35;;
52112;SDS011;38109;49.488;31.988;2023-04-25T02:46:17;10.02;;;6.18;;
52112;SDS011;38109;49.488;31.988;2023-04-25T02:48:43;8.52;;;5.57;;
52112;SDS011;38109;49.488;31.988;2023-04-25T02:51:09;12.15;;;7.40;;
52112;SDS011;38109;49.488;31.988;2023-04-25T02:53:34;13.77;;;8.32;;
52112;SDS011;38109;49.488;31.988;2023-04-25T02:56:00;13.95;;;8.00;;
52112;SDS011;38109;49.488;31.988;2023-04-25T02:58:26;12.07;;;7.22;;
52112;SDS011;38109;49.488;31.988;2023-04-25T03:00:52;11.00;;;6.95;;
52112;SDS011;38109;49.488;31.988;2023-04-25T03:03:18;10.45;;;6.55;;
52112;SDS011;38109;49.488;31.988;2023-04-25T03:05:46;11.88;;;6.53;;
52112;SDS011;38109;49.488;31.988;2023-04-25T03:08:13;10.77;;;6.85;;
52112;SDS011;38109;49.488;31.988;2023-04-25T03:10:39;10.45;;;6.15;;
52112;SDS011;38109;49.488;31.988;2023-04-25T03:13:05;10.27;;;6.47;;
52112;SDS011;38109;49.488;31.988;2023-04-25T03:15:30;10.13;;;5.65;;
52112;SDS011;38109;49.488;31.988;2023-04-25T03:17:56;13.02;;;7.93;;
52112;SDS011;38109;49.488;31.988;2023-04-25T03:20:21;17.05;;;9.32;;
52112;SDS011;38109;49.488;31.988;2023-04-25T03:22:47;14.75;;;9.32;;
52112;SDS011;38109;49.488;31.988;2023-04-25T03:25:13;19.60;;;10.18;;
52112;SDS011;38109;49.488;31.988;2023-04-25T03:27:38;20.67;;;11.18;;
52112;SDS011;38109;49.488;31.988;2023-04-25T03:30:04;34.95;;;17.33;;
52112;SDS011;38109;49.488;31.988;2023-04-25T03:32:31;28.45;;;13.68;;
52112;SDS011;38109;49.488;31.988;2023-04-25T03:34:57;21.08;;;11.68;;
52112;SDS011;38109;49.488;31.988;2023-04-25T03:37:22;19.10;;;11.07;;
52112;SDS011;38109;49.488;31.988;2023-04-25T03:39:48;17.35;;;10.02;;
52112;SDS011;38109;49.488;31.988;2023-04-25T03:42:14;14.40;;;8.52;;
52112;SDS011;38109;49.488;31.988;2023-04-25T03:44:39;16.30;;;9.32;;
52112;SDS011;38109;49.488;31.988;2023-04-25T03:47:05;15.02;;;8.70;;
52112;SDS011;38109;49.488;31.988;2023-04-25T03:49:31;13.45;;;8.20;;
52112;SDS011;38109;49.488;31.988;2023-04-25T03:51:57;17.50;;;8.95;;
52112;SDS011;38109;49.488;31.988;2023-04-25T03:54:23;13.43;;;7.55;;
52112;SDS011;38109;49.488;31.988;2023-04-25T03:56:48;16.77;;;8.85;;
52112;SDS011;38109;49.488;31.988;2023-04-25T03:59:14;15.65;;;8.30;;
52112;SDS011;38109;49.488;31.988;2023-04-25T04:01:40;13.98;;;7.88;;
52112;SDS011;38109;49.488;31.988;2023-04-25T04:04:05;13.27;;;7.85;;
52112;SDS011;38109;49.488;31.988;2023-04-25T04:06:31;13.75;;;8.18;;
52112;SDS011;38109;49.488;31.988;2023-04-25T04:08:57;12.23;;;7.30;;
52112;SDS011;38109;49.488;31.988;2023-04-25T04:11:22;13.75;;;7.75;;
52112;SDS011;38109;49.488;31.988;2023-04-25T04:13:48;10.43;;;7.03;;
52112;SDS011;38109;49.488;31.988;2023-04-25T04:16:13;10.18;;;7.07;;
52112;SDS011;38109;49.488;31.988;2023-04-25T04:18:39;12.40;;;6.93;;
52112;SDS011;38109;49.488;31.988;2023-04-25T04:21:05;11.82;;;6.82;;
52112;SDS011;38109;49.488;31.988;2023-04-25T07:40:20;8.20;;;5.20;;
52112;SDS011;38109;49.488;31.988;2023-04-25T07:42:46;7.93;;;5.60;;
52112;SDS011;38109;49.488;31.988;2023-04-25T07:45:12;6.78;;;4.88;;
52112;SDS011;38109;49.488;31.988;2023-04-25T07:47:37;6.35;;;4.75;;
52112;SDS011;38109;49.488;31.988;2023-04-25T07:50:03;7.15;;;5.18;;
52112;SDS011;38109;49.488;31.988;2023-04-25T07:52:29;7.75;;;5.05;;
52112;SDS011;38109;49.488;31.988;2023-04-25T07:54:55;7.40;;;5.22;;
52112;SDS011;38109;49.488;31.988;2023-04-25T07:57:22;7.90;;;4.90;;
52112;SDS011;38109;49.488;31.988;2023-04-25T07:59:49;6.00;;;4.68;;
52112;SDS011;38109;49.488;31.988;2023-04-25T08:02:14;6.07;;;4.50;;
52112;SDS011;38109;49.488;31.988;2023-04-25T08:04:40;5.95;;;4.70;;
52112;SDS011;38109;49.488;31.988;2023-04-25T08:07:06;6.65;;;5.00;;
52112;SDS011;38109;49.488;31.988;2023-04-25T08:09:31;6.35;;;5.03;;
52112;SDS011;38109;49.488;31.988;2023-04-25T08:12:00;7.68;;;4.88;;
52112;SDS011;38109;49.488;31.988;2023-04-25T08:14:27;7.13;;;4.72;;
52112;SDS011;38109;49.488;31.988;2023-04-25T08:16:53;7.35;;;5.35;;
52112;SDS011;38109;49.488;31.988;2023-04-25T08:19:19;7.40;;;5.00;;
52112;SDS011;38109;49.488;31.988;2023-04-25T08:21:45;6.85;;;4.97;;
52112;SDS011;38109;49.488;31.988;2023-04-25T08:24:10;6.82;;;5.20;;
52112;SDS011;38109;49.488;31.988;2023-04-25T08:26:36;7.57;;;5.07;;
52112;SDS011;38109;49.488;31.988;2023-04-25T08:29:03;6.95;;;4.70;;
52112;SDS011;38109;49.488;31.988;2023-04-25T08:31:29;7.22;;;4.93;;
52112;SDS011;38109;49.488;31.988;2023-04-25T08:33:55;5.80;;;4.38;;
52112;SDS011;38109;49.488;31.988;2023-04-25T08:36:20;7.05;;;4.95;;
52112;SDS011;38109;49.488;31.988;2023-04-25T08:38:46;9.00;;;5.38;;
52112;SDS011;38109;49.488;31.988;2023-04-25T08:41:12;6.03;;;4.82;;
52112;SDS011;38109;49.488;31.988;2023-04-25T08:43:38;6.97;;;4.65;;
52112;SDS011;38109;49.488;31.988;2023-04-25T08:46:08;5.28;;;3.80;;
52112;SDS011;38109;49.488;31.988;2023-04-25T08:48:36;5.10;;;4.10;;
52112;SDS011;38109;49.488;31.988;2023-04-25T08:51:02;6.63;;;4.43;;
52112;SDS011;38109;49.488;31.988;2023-04-25T08:53:32;5.68;;;3.85;;
52112;SDS011;38109;49.488;31.988;2023-04-25T08:56:00;5.75;;;4.07;;
52112;SDS011;38109;49.488;31.988;2023-04-25T08:58:30;8.20;;;4.35;;
52112;SDS011;38109;49.488;31.988;2023-04-25T09:00:57;6.70;;;4.47;;
52112;SDS011;38109;49.488;31.988;2023-04-25T09:03:24;6.78;;;4.55;;
52112;SDS011;38109;49.488;31.988;2023-04-25T09:05:50;5.72;;;4.07;;
52112;SDS011;38109;49.488;31.988;2023-04-25T09:08:16;5.93;;;3.97;;
52112;SDS011;38109;49.488;31.988;2023-04-25T09:10:42;6.85;;;4.53;;
52112;SDS011;38109;49.488;31.988;2023-04-25T09:13:11;6.93;;;4.20;;
52112;SDS011;38109;49.488;31.988;2023-04-25T09:15:51;7.88;;;4.20;;
52112;SDS011;38109;49.488;31.988;2023-04-25T09:18:25;7.00;;;4.35;;
52112;SDS011;38109;49.488;31.988;2023-04-25T09:21:04;6.13;;;3.88;;
52112;SDS011;38109;49.488;31.988;2023-04-25T09:26:08;5.32;;;4.20;;
52112;SDS011;38109;49.488;31.988;2023-04-25T09:28:35;6.38;;;4.03;;
52112;SDS011;38109;49.488;31.988;2023-04-25T09:31:02;8.15;;;4.10;;
52112;SDS011;38109;49.488;31.988;2023-04-25T09:33:29;9.48;;;4.20;;
52112;SDS011;38109;49.488;31.988;2023-04-25T09:36:05;6.47;;;3.72;;
52112;SDS011;38109;49.488;31.988;2023-04-25T09:38:46;6.32;;;4.45;;
52112;SDS011;38109;49.488;31.988;2023-04-25T09:41:12;4.60;;;3.85;;
52112;SDS011;38109;49.488;31.988;2023-04-25T09:43:38;5.57;;;4.03;;
52112;SDS011;38109;49.488;31.988;2023-04-25T09:46:10;5.57;;;4.03;;
52112;SDS011;38109;49.488;31.988;2023-04-25T09:48:36;4.43;;;3.80;;
52112;SDS011;38109;49.488;31.988;2023-04-25T09:53:35;4.40;;;3.75;;
52112;SDS011;38109;49.488;31.988;2023-04-25T09:56:11;5.05;;;3.88;;
52112;SDS011;38109;49.488;31.988;2023-04-25T09:58:39;5.95;;;4.00;;
52112;SDS011;38109;49.488;31.988;2023-04-25T10:01:09;7.10;;;4.40;;
52112;SDS011;38109;49.488;31.988;2023-04-25T10:03:39;4.32;;;3.75;;
52112;SDS011;38109;49.488;31.988;2023-04-25T10:06:09;7.00;;;4.00;;
52112;SDS011;38109;49.488;31.988;2023-04-25T10:08:39;5.95;;;4.03;;
52112;SDS011;38109;49.488;31.988;2023-04-25T10:11:06;5.80;;;3.80;;
52112;SDS011;38109;49.488;31.988;2023-04-25T10:13:33;6.93;;;4.35;;
52112;SDS011;38109;49.488;31.988;2023-04-25T10:16:03;5.53;;;3.78;;
52112;SDS011;38109;49.488;31.988;2023-04-25T10:18:30;3.75;;;3.25;;
52112;SDS011;38109;49.488;31.988;2023-04-25T10:21:00;6.40;;;3.20;;
52112;SDS011;38109;49.488;31.988;2023-04-25T10:23:28;4.40;;;3.13;;
52112;SDS011;38109;49.488;31.988;2023-04-25T10:25:55;4.40;;;3.42;;
52112;SDS011;38109;49.488;31.988;2023-04-25T10:28:21;3.70;;;3.10;;
52112;SDS011;38109;49.488;31.988;2023-04-25T10:31:03;3.25;;;2.65;;
52112;SDS011;38109;49.488;31.988;2023-04-25T10:33:37;3.25;;;2.95;;
52112;SDS011;38109;49.488;31.988;2023-04-25T10:36:11;3.38;;;2.88;;
52112;SDS011;38109;49.488;31.988;2023-04-25T10:38:43;5.35;;;2.85;;
52112;SDS011;38109;49.488;31.988;2023-04-25T10:41:11;3.13;;;2.60;;
52112;SDS011;38109;49.488;31.988;2023-04-25T10:46:13;4.60;;;2.80;;
52112;SDS011;38109;49.488;31.988;2023-04-25T10:48:47;2.80;;;2.60;;
52112;SDS011;38109;49.488;31.988;2023-04-25T10:51:23;2.72;;;2.53;;
52112;SDS011;38109;49.488;31.988;2023-04-25T10:54:08;3.80;;;2.40;;
52112;SDS011;38109;49.488;31.988;2023-04-25T10:56:38;3.42;;;2.80;;
52112;SDS011;38109;49.488;31.988;2023-04-25T11:01:42;2.80;;;2.50;;
52112;SDS011;38109;49.488;31.988;2023-04-25T11:09:39;3.40;;;2.58;;
52112;SDS011;38109;49.488;31.988;2023-04-25T11:12:07;3.00;;;2.40;;
52112;SDS011;38109;49.488;31.988;2023-04-25T11:14:33;2.58;;;2.38;;
52112;SDS011;38109;49.488;31.988;2023-04-25T11:16:59;2.65;;;2.42;;
52112;SDS011;38109;49.488;31.988;2023-04-25T11:19:27;3.78;;;2.65;;
52112;SDS011;38109;49.488;31.988;2023-04-25T11:21:57;3.25;;;2.67;;
52112;SDS011;38109;49.488;31.988;2023-04-25T11:24:27;3.28;;;2.78;;
52112;SDS011;38109;49.488;31.988;2023-04-25T11:26:54;4.25;;;2.85;;
52112;SDS011;38109;49.488;31.988;2023-04-25T11:29:26;3.78;;;2.88;;
52112;SDS011;38109;49.488;31.988;2023-04-25T11:31:53;5.28;;;3.00;;
52112;SDS011;38109;49.488;31.988;2023-04-25T11:34:22;3.42;;;2.83;;
52112;SDS011;38109;49.488;31.988;2023-04-25T11:36:49;5.80;;;3.00;;
52112;SDS011;38109;49.488;31.988;2023-04-25T11:39:17;4.15;;;3.20;;
52112;SDS011;38109;49.488;31.988;2023-04-25T11:41:44;3.85;;;3.20;;
52112;SDS011;38109;49.488;31.988;2023-04-25T11:44:09;3.70;;;3.15;;
52112;SDS011;38109;49.488;31.988;2023-04-25T11:46:35;3.60;;;3.00;;
52112;SDS011;38109;49.488;31.988;2023-04-25T11:49:01;2.97;;;2.60;;
52112;SDS011;38109;49.488;31.988;2023-04-25T11:51:27;2.97;;;2.47;;
52112;SDS011;38109;49.488;31.988;2023-04-25T11:53:53;2.58;;;2.38;;
52112;SDS011;38109;49.488;31.988;2023-04-25T11:56:20;2.70;;;2.50;;
52112;SDS011;38109;49.488;31.988;2023-04-25T12:02:09;2.53;;;2.30;;
52112;SDS011;38109;49.488;31.988;2023-04-25T12:04:14;3.63;;;2.40;;
52112;SDS011;38109;49.488;31.988;2023-04-25T12:06:41;2.75;;;2.55;;
52112;SDS011;38109;49.488;31.988;2023-04-25T12:09:09;2.95;;;2.58;;
52112;SDS011;38109;49.488;31.988;2023-04-25T12:11:42;2.95;;;2.65;;
52112;SDS011;38109;49.488;31.988;2023-04-25T12:14:19;3.35;;;2.40;;
52112;SDS011;38109;49.488;31.988;2023-04-25T12:16:49;2.42;;;2.22;;
52112;SDS011;38109;49.488;31.988;2023-04-25T12:19:19;3.00;;;2.70;;
52112;SDS011;38109;49.488;31.988;2023-04-25T12:21:45;2.80;;;2.42;;
52112;SDS011;38109;49.488;31.988;2023-04-25T12:24:18;3.47;;;2.63;;
52112;SDS011;38109;49.488;31.988;2023-04-25T12:26:59;2.50;;;2.30;;
52112;SDS011;38109;49.488;31.988;2023-04-25T12:29:32;3.03;;;2.47;;
52112;SDS011;38109;49.488;31.988;2023-04-25T12:31:59;2.38;;;2.17;;
52112;SDS011;38109;49.488;31.988;2023-04-25T12:34:26;2.55;;;2.20;;
52112;SDS011;38109;49.488;31.988;2023-04-25T12:36:52;2.40;;;2.20;;
52112;SDS011;38109;49.488;31.988;2023-04-25T12:39:20;2.28;;;2.10;;
52112;SDS011;38109;49.488;31.988;2023-04-25T12:41:50;3.20;;;2.90;;
52112;SDS011;38109;49.488;31.988;2023-04-25T12:44:19;2.60;;;2.40;;
52112;SDS011;38109;49.488;31.988;2023-04-25T12:46:46;2.40;;;2.20;;
52112;SDS011;38109;49.488;31.988;2023-04-25T12:49:12;2.83;;;2.45;;
52112;SDS011;38109;49.488;31.988;2023-04-25T12:51:38;2.50;;;2.30;;
52112;SDS011;38109;49.488;31.988;2023-04-25T12:54:04;3.88;;;2.67;;
52112;SDS011;38109;49.488;31.988;2023-04-25T12:56:31;2.75;;;2.53;;
52112;SDS011;38109;49.488;31.988;2023-04-25T12:58:56;2.47;;;2.28;;
52112;SDS011;38109;49.488;31.988;2023-04-25T13:01:23;3.53;;;2.65;;
52112;SDS011;38109;49.488;31.988;2023-04-25T13:03:49;2.40;;;2.20;;
52112;SDS011;38109;49.488;31.988;2023-04-25T13:06:16;2.60;;;2.40;;
52112;SDS011;38109;49.488;31.988;2023-04-25T13:08:43;2.92;;;2.60;;
52112;SDS011;38109;49.488;31.988;2023-04-25T13:11:08;2.60;;;2.40;;
52112;SDS011;38109;49.488;31.988;2023-04-25T13:13:34;2.72;;;2.50;;
52112;SDS011;38109;49.488;31.988;2023-04-25T13:16:01;3.00;;;2.70;;
52112;SDS011;38109;49.488;31.988;2023-04-25T13:18:28;3.42;;;3.03;;
52112;SDS011;38109;49.488;31.988;2023-04-25T13:20:55;3.53;;;2.97;;
52112;SDS011;38109;49.488;31.988;2023-04-25T13:23:21;3.80;;;2.58;;
52112;SDS011;38109;49.488;31.988;2023-04-25T13:25:47;3.22;;;2.70;;
52112;SDS011;38109;49.488;31.988;2023-04-25T13:28:13;2.80;;;2.60;;
52112;SDS011;38109;49.488;31.988;2023-04-25T13:30:39;2.72;;;2.53;;
52112;SDS011;38109;49.488;31.988;2023-04-25T13:33:05;3.97;;;2.78;;
52112;SDS011;38109;49.488;31.988;2023-04-25T13:35:31;2.45;;;2.25;;
52112;SDS011;38109;49.488;31.988;2023-04-25T13:37:57;2.97;;;2.40;;
52112;SDS011;38109;49.488;31.988;2023-04-25T13:40:23;2.25;;;2.15;;
52112;SDS011;38109;49.488;31.988;2023-04-25T13:42:49;2.58;;;2.10;;
52112;SDS011;38109;49.488;31.988;2023-04-25T13:45:16;2.75;;;2.53;;
52112;SDS011;38109;49.488;31.988;2023-04-25T13:47:41;3.05;;;2.65;;
52112;SDS011;38109;49.488;31.988;2023-04-25T13:50:07;2.42;;;2.30;;
52112;SDS011;38109;49.488;31.988;2023-04-25T13:52:33;3.00;;;2.70;;
52112;SDS011;38109;49.488;31.988;2023-04-25T13:54:59;3.10;;;2.60;;
52112;SDS011;38109;49.488;31.988;2023-04-25T13:57:26;2.53;;;2.30;;
52112;SDS011;38109;49.488;31.988;2023-04-25T13:59:51;2.50;;;2.30;;
52112;SDS011;38109;49.488;31.988;2023-04-25T14:02:17;2.60;;;2.40;;
52112;SDS011;38109;49.488;31.988;2023-04-25T14:04:43;2.50;;;2.30;;
52112;SDS011;38109;49.488;31.988;2023-04-25T14:07:09;2.60;;;2.40;;
52112;SDS011;38109;49.488;31.988;2023-04-25T14:09:36;2.40;;;2.20;;
52112;SDS011;38109;49.488;31.988;2023-04-25T14:12:02;3.42;;;2.13;;
52112;SDS011;38109;49.488;31.988;2023-04-25T14:14:27;3.13;;;2.53;;
52112;SDS011;38109;49.488;31.988;2023-04-25T14:16:54;3.17;;;2.67;;
52112;SDS011;38109;49.488;31.988;2023-04-25T14:19:21;2.60;;;2.40;;
52112;SDS011;38109;49.488;31.988;2023-04-25T14:21:48;3.40;;;2.60;;
52112;SDS011;38109;49.488;31.988;2023-04-25T14:24:13;2.55;;;2.30;;
52112;SDS011;38109;49.488;31.988;2023-04-25T14:26:39;2.50;;;2.30;;
52112;SDS011;38109;49.488;31.988;2023-04-25T14:29:06;3.40;;;2.47;;
52112;SDS011;38109;49.488;31.988;2023-04-25T14:31:32;2.50;;;2.30;;
52112;SDS011;38109;49.488;31.988;2023-04-25T14:33:58;2.50;;;2.30;;
52112;SDS011;38109;49.488;31.988;2023-04-25T14:36:24;4.05;;;2.75;;
52112;SDS011;38109;49.488;31.988;2023-04-25T14:38:51;2.50;;;2.30;;
52112;SDS011;38109;49.488;31.988;2023-04-25T14:41:17;2.88;;;2.53;;
52112;SDS011;38109;49.488;31.988;2023-04-25T14:43:43;2.53;;;2.33;;
52112;SDS011;38109;49.488;31.988;2023-04-25T14:46:09;4.85;;;2.80;;
52112;SDS011;38109;49.488;31.988;2023-04-25T14:48:35;3.72;;;2.72;;
52112;SDS011;38109;49.488;31.988;2023-04-25T14:51:01;7.28;;;3.20;;
52112;SDS011;38109;49.488;31.988;2023-04-25T14:53:27;2.85;;;2.53;;
52112;SDS011;38109;49.488;31.988;2023-04-25T14:55:53;2.80;;;2.60;;
52112;SDS011;38109;49.488;31.988;2023-04-25T14:58:19;3.42;;;2.42;;
52112;SDS011;38109;49.488;31.988;2023-04-25T15:00:45;2.45;;;2.17;;
52112;SDS011;38109;49.488;31.988;2023-04-25T15:03:11;3.20;;;2.30;;
52112;SDS011;38109;49.488;31.988;2023-04-25T15:05:38;2.83;;;2.28;;
52112;SDS011;38109;49.488;31.988;2023-04-25T15:08:05;2.63;;;2.42;;
52112;SDS011;38109;49.488;31.988;2023-04-25T15:10:30;3.30;;;2.83;;
52112;SDS011;38109;49.488;31.988;2023-04-25T15:12:57;3.08;;;2.50;;
52112;SDS011;38109;49.488;31.988;2023-04-25T15:15:23;2.60;;;2.40;;
52112;SDS011;38109;49.488;31.988;2023-04-25T15:17:49;2.90;;;2.60;;
52112;SDS011;38109;49.488;31.988;2023-04-25T15:20:15;2.78;;;2.50;;
52112;SDS011;38109;49.488;31.988;2023-04-25T15:22:42;2.70;;;2.50;;
52112;SDS011;38109;49.488;31.988;2023-04-25T15:25:08;3.03;;;2.60;;
52112;SDS011;38109;49.488;31.988;2023-04-25T15:27:36;2.85;;;2.58;;
52112;SDS011;38109;49.488;31.988;2023-04-25T15:30:05;3.28;;;2.70;;
52112;SDS011;38109;49.488;31.988;2023-04-25T15:32:32;11.75;;;6.68;;
52112;SDS011;38109;49.488;31.988;2023-04-25T15:34:58;5.72;;;3.75;;
52112;SDS011;38109;49.488;31.988;2023-04-25T15:37:27;4.22;;;3.00;;
52112;SDS011;38109;49.488;31.988;2023-04-25T15:40:00;4.10;;;2.83;;
52112;SDS011;38109;49.488;31.988;2023-04-25T15:45:03;2.88;;;2.58;;
52112;SDS011;38109;49.488;31.988;2023-04-25T15:47:31;2.80;;;2.53;;
52112;SDS011;38109;49.488;31.988;2023-04-25T15:49:58;4.90;;;2.60;;
52112;SDS011;38109;49.488;31.988;2023-04-25T15:52:24;2.95;;;2.47;;
52112;SDS011;38109;49.488;31.988;2023-04-25T15:54:50;2.72;;;2.53;;
52112;SDS011;38109;49.488;31.988;2023-04-25T15:57:15;3.00;;;2.70;;
52112;SDS011;38109;49.488;31.988;2023-04-25T15:59:41;2.70;;;2.50;;
52112;SDS011;38109;49.488;31.988;2023-04-25T16:02:06;2.75;;;2.55;;
52112;SDS011;38109;49.488;31.988;2023-04-25T16:04:33;2.72;;;2.53;;
52112;SDS011;38109;49.488;31.988;2023-04-25T16:07:02;2.50;;;2.30;;
52112;SDS011;38109;49.488;31.988;2023-04-25T16:09:29;5.22;;;2.90;;
52112;SDS011;38109;49.488;31.988;2023-04-25T16:11:55;3.00;;;2.70;;
52112;SDS011;38109;49.488;31.988;2023-04-25T16:14:21;3.33;;;2.47;;
52112;SDS011;38109;49.488;31.988;2023-04-25T16:16:46;2.90;;;2.60;;
52112;SDS011;38109;49.488;31.988;2023-04-25T16:19:12;3.67;;;2.67;;
52112;SDS011;38109;49.488;31.988;2023-04-25T16:21:38;3.33;;;3.03;;
52112;SDS011;38109;49.488;31.988;2023-04-25T16:24:04;4.35;;;3.42;;
52112;SDS011;38109;49.488;31.988;2023-04-25T16:26:29;5.18;;;4.25;;
52112;SDS011;38109;49.488;31.988;2023-04-25T16:28:55;5.55;;;4.30;;
52112;SDS011;38109;49.488;31.988;2023-04-25T16:31:21;7.63;;;5.57;;
52112;SDS011;38109;49.488;31.988;2023-04-25T16:33:47;8.93;;;6.20;;
52112;SDS011;38109;49.488;31.988;2023-04-25T16:36:13;12.82;;;7.65;;
52112;SDS011;38109;49.488;31.988;2023-04-25T16:38:38;13.10;;;8.32;;
52112;SDS011;38109;49.488;31.988;2023-04-25T16:41:04;13.30;;;7.50;;
52112;SDS011;38109;49.488;31.988;2023-04-25T16:43:30;15.35;;;8.27;;
52112;SDS011;38109;49.488;31.988;2023-04-25T16:45:56;12.75;;;8.70;;
52112;SDS011;38109;49.488;31.988;2023-04-25T16:48:23;19.63;;;10.40;;
52112;SDS011;38109;49.488;31.988;2023-04-25T16:50:49;16.77;;;11.20;;
52112;SDS011;38109;49.488;31.988;2023-04-25T16:53:16;19.45;;;12.20;;
52112;SDS011;38109;49.488;31.988;2023-04-25T16:55:42;18.70;;;11.93;;
52112;SDS011;38109;49.488;31.988;2023-04-25T16:58:08;20.83;;;13.13;;
52112;SDS011;38109;49.488;31.988;2023-04-25T17:00:38;25.67;;;15.48;;
52112;SDS011;38109;49.488;31.988;2023-04-25T17:03:04;29.88;;;16.55;;
52112;SDS011;38109;49.488;31.988;2023-04-25T17:05:30;25.70;;;15.65;;
52112;SDS011;38109;49.488;31.988;2023-04-25T17:07:56;32.10;;;15.30;;
52112;SDS011;38109;49.488;31.988;2023-04-25T17:10:21;29.33;;;14.35;;
52112;SDS011;38109;49.488;31.988;2023-04-25T17:12:47;32.67;;;15.40;;
52112;SDS011;38109;49.488;31.988;2023-04-25T17:15:13;29.60;;;13.80;;
52112;SDS011;38109;49.488;31.988;2023-04-25T17:17:39;26.98;;;12.52;;
52112;SDS011;38109;49.488;31.988;2023-04-25T17:20:06;27.67;;;12.90;;
52112;SDS011;38109;49.488;31.988;2023-04-25T17:22:34;29.25;;;12.38;;
52112;SDS011;38109;49.488;31.988;2023-04-25T17:25:01;27.20;;;12.90;;
52112;SDS011;38109;49.488;31.988;2023-04-25T17:27:28;23.35;;;12.02;;
52112;SDS011;38109;49.488;31.988;2023-04-25T17:29:53;22.52;;;12.05;;
52112;SDS011;38109;49.488;31.988;2023-04-25T17:32:19;23.00;;;9.85;;
52112;SDS011;38109;49.488;31.988;2023-04-25T17:34:45;16.23;;;8.98;;
52112;SDS011;38109;49.488;31.988;2023-04-25T17:37:12;32.42;;;12.38;;
52112;SDS011;38109;49.488;31.988;2023-04-25T17:39:40;52.97;;;18.73;;
52112;SDS011;38109;49.488;31.988;2023-04-25T17:42:06;39.25;;;14.38;;
52112;SDS011;38109;49.488;31.988;2023-04-25T17:44:37;31.27;;;11.50;;
52112;SDS011;38109;49.488;31.988;2023-04-25T17:50:26;19.25;;;8.20;;
52112;SDS011;38109;49.488;31.988;2023-04-25T17:52:52;16.42;;;7.55;;
52112;SDS011;38109;49.488;31.988;2023-04-25T17:55:18;13.15;;;6.78;;
52112;SDS011;38109;49.488;31.988;2023-04-25T17:57:43;9.82;;;5.80;;
52112;SDS011;38109;49.488;31.988;2023-04-25T18:00:09;9.80;;;5.88;;
52112;SDS011;38109;49.488;31.988;2023-04-25T18:02:37;9.48;;;5.68;;
52112;SDS011;38109;49.488;31.988;2023-04-25T18:05:03;11.70;;;5.82;;
52112;SDS011;38109;49.488;31.988;2023-04-25T18:20:50;7.85;;;4.10;;